sensor_id;sensor_type;location;lat;lon;timestamp;temperature;humidity
3816;DHT22;1923;48.154;11.536;2022-12-18T00:01:51;-3.50;99.90
3816;DHT22;1923;48.154;11.536;2022-12-18T00:04:21;-3.30;99.90
3816;DHT22;1923;48.154;11.536;2022-12-18T00:06:50;-3.50;99.90
3816;DHT22;1923;48.154;11.536;2022-12-18T00:09:18;-3.50;99.90
3816;DHT22;1923;48.154;11.536;2022-12-18T00:11:47;-3.50;99.90
3816;DHT22;1923;48.154;11.536;2022-12-18T00:14:16;-3.40;99.90
3816;DHT22;1923;48.154;11.536;2022-12-18T00:16:44;-3.30;99.90
3816;DHT22;1923;48.154;11.536;2022-12-18T00:19:13;-3.30;99.90
3816;DHT22;1923;48.154;11.536;2022-12-18T00:21:42;-3.30;99.90
3816;DHT22;1923;48.154;11.536;2022-12-18T00:24:11;-3.40;99.90
3816;DHT22;1923;48.154;11.536;2022-12-18T00:26:39;-3.40;99.90
3816;DHT22;1923;48.154;11.536;2022-12-18T00:29:12;-3.40;99.90
3816;DHT22;1923;48.154;11.536;2022-12-18T00:31:41;-3.60;99.90
3816;DHT22;1923;48.154;11.536;2022-12-18T00:34:11;-3.70;99.90
3816;DHT22;1923;48.154;11.536;2022-12-18T00:36:40;-3.70;99.90
3816;DHT22;1923;48.154;11.536;2022-12-18T00:39:10;-3.50;99.90
3816;DHT22;1923;48.154;11.536;2022-12-18T00:41:38;-3.40;99.90
3816;DHT22;1923;48.154;11.536;2022-12-18T00:44:25;-3.50;99.90
3816;DHT22;1923;48.154;11.536;2022-12-18T00:46:53;-3.70;99.90
3816;DHT22;1923;48.154;11.536;2022-12-18T00:49:21;-3.50;99.90
3816;DHT22;1923;48.154;11.536;2022-12-18T00:51:49;-3.80;99.90
3816;DHT22;1923;48.154;11.536;2022-12-18T00:54:17;-3.70;99.90
3816;DHT22;1923;48.154;11.536;2022-12-18T00:56:45;-3.70;99.90
3816;DHT22;1923;48.154;11.536;2022-12-18T00:59:16;-4.00;99.90
3816;DHT22;1923;48.154;11.536;2022-12-18T01:01:46;-4.10;99.90
3816;DHT22;1923;48.154;11.536;2022-12-18T01:04:14;-4.00;99.90
3816;DHT22;1923;48.154;11.536;2022-12-18T01:06:43;-4.00;99.90
3816;DHT22;1923;48.154;11.536;2022-12-18T01:09:11;-3.80;99.90
3816;DHT22;1923;48.154;11.536;2022-12-18T01:11:39;-3.80;99.90
3816;DHT22;1923;48.154;11.536;2022-12-18T01:14:07;-3.70;99.90
3816;DHT22;1923;48.154;11.536;2022-12-18T01:16:35;-3.60;99.90
3816;DHT22;1923;48.154;11.536;2022-12-18T01:19:05;-3.50;99.90
3816;DHT22;1923;48.154;11.536;2022-12-18T01:21:33;-3.50;99.90
3816;DHT22;1923;48.154;11.536;2022-12-18T01:24:01;-3.50;99.90
3816;DHT22;1923;48.154;11.536;2022-12-18T10:18:39;-4.40;99.90
3816;DHT22;1923;48.154;11.536;2022-12-18T10:21:15;-2.70;99.90
3816;DHT22;1923;48.154;11.536;2022-12-18T10:23:50;-2.60;99.90
3816;DHT22;1923;48.154;11.536;2022-12-18T10:26:24;-2.50;99.90
3816;DHT22;1923;48.154;11.536;2022-12-18T10:28:53;-2.40;99.90
3816;DHT22;1923;48.154;11.536;2022-12-18T10:31:31;-2.50;99.90
3816;DHT22;1923;48.154;11.536;2022-12-18T10:34:00;-2.60;99.90
3816;DHT22;1923;48.154;11.536;2022-12-18T10:36:29;-2.60;99.90
3816;DHT22;1923;48.154;11.536;2022-12-18T10:39:14;-2.70;99.90
3816;DHT22;1923;48.154;11.536;2022-12-18T10:41:42;-2.30;99.90
3816;DHT22;1923;48.154;11.536;2022-12-18T10:44:16;-2.20;99.90
3816;DHT22;1923;48.154;11.536;2022-12-18T10:46:45;-2.10;99.90
3816;DHT22;1923;48.154;11.536;2022-12-18T10:49:25;-2.30;99.90
3816;DHT22;1923;48.154;11.536;2022-12-18T10:52:11;-2.30;99.90
3816;DHT22;1923;48.154;11.536;2022-12-18T10:54:47;-2.30;99.90
3816;DHT22;1923;48.154;11.536;2022-12-18T10:57:27;-2.40;99.90
3816;DHT22;1923;48.154;11.536;2022-12-18T10:59:57;-2.60;99.90
3816;DHT22;1923;48.154;11.536;2022-12-18T11:02:28;-2.70;99.90
3816;DHT22;1923;48.154;11.536;2022-12-18T11:05:07;-2.70;99.90
3816;DHT22;1923;48.154;11.536;2022-12-18T11:07:50;-2.70;99.90
3816;DHT22;1923;48.154;11.536;2022-12-18T11:10:25;-2.70;99.90
3816;DHT22;1923;48.154;11.536;2022-12-18T11:12:55;-2.50;99.90
3816;DHT22;1923;48.154;11.536;2022-12-18T11:15:27;-2.30;99.90
3816;DHT22;1923;48.154;11.536;2022-12-18T11:17:57;-2.80;99.90
3816;DHT22;1923;48.154;11.536;2022-12-18T11:20:33;-2.50;99.90
3816;DHT22;1923;48.154;11.536;2022-12-18T11:23:05;-2.50;99.90
3816;DHT22;1923;48.154;11.536;2022-12-18T11:25:39;-2.50;99.90
3816;DHT22;1923;48.154;11.536;2022-12-18T11:28:34;-2.50;99.90
3816;DHT22;1923;48.154;11.536;2022-12-18T11:31:22;-2.50;99.90
3816;DHT22;1923;48.154;11.536;2022-12-18T11:34:01;-2.30;99.90
3816;DHT22;1923;48.154;11.536;2022-12-18T11:36:52;-2.20;99.90
3816;DHT22;1923;48.154;11.536;2022-12-18T11:39:38;-2.30;99.90
3816;DHT22;1923;48.154;11.536;2022-12-18T11:42:12;-2.10;99.90
3816;DHT22;1923;48.154;11.536;2022-12-18T11:44:48;-2.40;99.90
3816;DHT22;1923;48.154;11.536;2022-12-18T11:47:25;-2.20;99.90
3816;DHT22;1923;48.154;11.536;2022-12-18T11:50:00;-2.30;99.90
3816;DHT22;1923;48.154;11.536;2022-12-18T11:52:33;-2.00;99.90
3816;DHT22;1923;48.154;11.536;2022-12-18T11:55:10;-1.90;99.90
3816;DHT22;1923;48.154;11.536;2022-12-18T11:57:45;-1.90;99.90
3816;DHT22;1923;48.154;11.536;2022-12-18T12:00:19;-1.90;99.90
3816;DHT22;1923;48.154;11.536;2022-12-18T12:06:06;-2.20;99.90
3816;DHT22;1923;48.154;11.536;2022-12-18T12:08:49;-2.20;99.90
3816;DHT22;1923;48.154;11.536;2022-12-18T12:11:22;-2.10;99.90
3816;DHT22;1923;48.154;11.536;2022-12-18T12:14:03;-2.10;99.90
3816;DHT22;1923;48.154;11.536;2022-12-18T12:16:39;-2.10;99.90
3816;DHT22;1923;48.154;11.536;2022-12-18T12:19:21;-2.10;99.90
3816;DHT22;1923;48.154;11.536;2022-12-18T12:22:00;-2.30;99.90
3816;DHT22;1923;48.154;11.536;2022-12-18T12:24:42;-2.00;99.90
3816;DHT22;1923;48.154;11.536;2022-12-18T12:27:18;-1.70;99.90
3816;DHT22;1923;48.154;11.536;2022-12-18T12:29:59;-2.10;99.90
3816;DHT22;1923;48.154;11.536;2022-12-18T12:32:44;-2.50;99.90
3816;DHT22;1923;48.154;11.536;2022-12-18T12:38:10;-2.70;99.90
3816;DHT22;1923;48.154;11.536;2022-12-18T12:40:43;-2.60;99.90
3816;DHT22;1923;48.154;11.536;2022-12-18T12:43:33;-2.50;99.90
3816;DHT22;1923;48.154;11.536;2022-12-18T12:46:04;-2.50;99.90
3816;DHT22;1923;48.154;11.536;2022-12-18T12:48:38;-2.50;99.90
3816;DHT22;1923;48.154;11.536;2022-12-18T12:51:13;-2.40;99.90
3816;DHT22;1923;48.154;11.536;2022-12-18T12:53:42;-2.40;99.90
3816;DHT22;1923;48.154;11.536;2022-12-18T12:56:15;-2.50;99.90
3816;DHT22;1923;48.154;11.536;2022-12-18T12:58:52;-2.50;99.90
3816;DHT22;1923;48.154;11.536;2022-12-18T13:01:28;-2.60;99.90
3816;DHT22;1923;48.154;11.536;2022-12-18T13:04:08;-2.60;99.90
3816;DHT22;1923;48.154;11.536;2022-12-18T13:06:45;-2.70;99.90
3816;DHT22;1923;48.154;11.536;2022-12-18T13:09:15;-2.70;99.90
3816;DHT22;1923;48.154;11.536;2022-12-18T13:11:46;-2.80;99.90
3816;DHT22;1923;48.154;11.536;2022-12-18T13:14:34;-2.50;99.90
3816;DHT22;1923;48.154;11.536;2022-12-18T13:17:21;-2.30;99.90
3816;DHT22;1923;48.154;11.536;2022-12-18T13:20:05;-2.10;99.90
3816;DHT22;1923;48.154;11.536;2022-12-18T13:22:35;-2.10;99.90
3816;DHT22;1923;48.154;11.536;2022-12-18T13:25:33;-2.20;99.90
3816;DHT22;1923;48.154;11.536;2022-12-18T13:28:09;-1.90;99.90
3816;DHT22;1923;48.154;11.536;2022-12-18T13:30:52;-1.90;99.90
3816;DHT22;1923;48.154;11.536;2022-12-18T13:33:50;-2.40;99.90
3816;DHT22;1923;48.154;11.536;2022-12-18T13:36:38;-2.50;99.90
3816;DHT22;1923;48.154;11.536;2022-12-18T13:39:21;-2.20;99.90
3816;DHT22;1923;48.154;11.536;2022-12-18T13:45:45;-2.30;99.90
3816;DHT22;1923;48.154;11.536;2022-12-18T13:48:19;-2.20;99.90
3816;DHT22;1923;48.154;11.536;2022-12-18T13:50:53;-2.20;99.90
3816;DHT22;1923;48.154;11.536;2022-12-18T13:53:26;-2.50;99.90
3816;DHT22;1923;48.154;11.536;2022-12-18T13:55:55;-2.90;99.90
3816;DHT22;1923;48.154;11.536;2022-12-18T13:58:23;-3.10;99.90
3816;DHT22;1923;48.154;11.536;2022-12-18T14:00:53;-3.20;99.90
3816;DHT22;1923;48.154;11.536;2022-12-18T14:03:24;-3.20;99.90
3816;DHT22;1923;48.154;11.536;2022-12-18T14:06:02;-3.10;99.90
3816;DHT22;1923;48.154;11.536;2022-12-18T14:08:38;-3.10;99.90
3816;DHT22;1923;48.154;11.536;2022-12-18T14:11:19;-3.20;99.90
3816;DHT22;1923;48.154;11.536;2022-12-18T14:13:49;-3.30;99.90
3816;DHT22;1923;48.154;11.536;2022-12-18T14:16:19;-3.30;99.90
3816;DHT22;1923;48.154;11.536;2022-12-18T14:18:50;-3.30;99.90
3816;DHT22;1923;48.154;11.536;2022-12-18T14:21:26;-3.10;99.90
3816;DHT22;1923;48.154;11.536;2022-12-18T14:24:12;-3.30;99.90
3816;DHT22;1923;48.154;11.536;2022-12-18T14:26:46;-3.40;99.90
3816;DHT22;1923;48.154;11.536;2022-12-18T14:29:24;-3.50;99.90
3816;DHT22;1923;48.154;11.536;2022-12-18T14:32:10;-3.50;99.90
3816;DHT22;1923;48.154;11.536;2022-12-18T14:34:45;-3.30;99.90
3816;DHT22;1923;48.154;11.536;2022-12-18T14:37:14;-3.30;99.90
3816;DHT22;1923;48.154;11.536;2022-12-18T14:39:53;-3.30;99.90
3816;DHT22;1923;48.154;11.536;2022-12-18T14:42:21;-3.30;99.90
3816;DHT22;1923;48.154;11.536;2022-12-18T14:44:49;-3.10;99.90
3816;DHT22;1923;48.154;11.536;2022-12-18T14:47:38;-3.10;99.90
3816;DHT22;1923;48.154;11.536;2022-12-18T14:50:13;-3.00;99.90
3816;DHT22;1923;48.154;11.536;2022-12-18T14:52:41;-2.90;99.90
3816;DHT22;1923;48.154;11.536;2022-12-18T14:55:15;-2.90;99.90
3816;DHT22;1923;48.154;11.536;2022-12-18T14:57:44;-2.80;99.90
3816;DHT22;1923;48.154;11.536;2022-12-18T15:00:16;-2.80;99.90
3816;DHT22;1923;48.154;11.536;2022-12-18T15:02:49;-3.00;99.90
3816;DHT22;1923;48.154;11.536;2022-12-18T15:05:24;-3.20;99.90
3816;DHT22;1923;48.154;11.536;2022-12-18T15:07:53;-3.00;99.90
3816;DHT22;1923;48.154;11.536;2022-12-18T15:10:24;-3.30;99.90
3816;DHT22;1923;48.154;11.536;2022-12-18T15:13:15;-3.30;99.90
3816;DHT22;1923;48.154;11.536;2022-12-18T15:15:48;-3.30;99.90
3816;DHT22;1923;48.154;11.536;2022-12-18T15:18:19;-3.20;99.90
3816;DHT22;1923;48.154;11.536;2022-12-18T15:20:50;-3.20;99.90
3816;DHT22;1923;48.154;11.536;2022-12-18T15:23:22;-3.30;99.90
3816;DHT22;1923;48.154;11.536;2022-12-18T15:25:57;-3.20;99.90
3816;DHT22;1923;48.154;11.536;2022-12-18T15:28:27;-3.10;99.90
3816;DHT22;1923;48.154;11.536;2022-12-18T15:31:02;-3.10;99.90
3816;DHT22;1923;48.154;11.536;2022-12-18T15:33:34;-3.10;99.90
3816;DHT22;1923;48.154;11.536;2022-12-18T15:36:03;-3.10;99.90
3816;DHT22;1923;48.154;11.536;2022-12-18T15:38:32;-3.20;99.90
3816;DHT22;1923;48.154;11.536;2022-12-18T15:41:00;-3.20;99.90
3816;DHT22;1923;48.154;11.536;2022-12-18T15:43:28;-3.20;99.90
3816;DHT22;1923;48.154;11.536;2022-12-18T15:46:03;-3.20;99.90
3816;DHT22;1923;48.154;11.536;2022-12-18T15:48:35;-3.10;99.90
3816;DHT22;1923;48.154;11.536;2022-12-18T15:51:13;-2.90;99.90
3816;DHT22;1923;48.154;11.536;2022-12-18T15:53:42;-2.80;99.90
3816;DHT22;1923;48.154;11.536;2022-12-18T15:56:12;-2.90;99.90
3816;DHT22;1923;48.154;11.536;2022-12-18T15:58:58;-2.70;99.90
3816;DHT22;1923;48.154;11.536;2022-12-18T16:01:28;-2.80;99.90
3816;DHT22;1923;48.154;11.536;2022-12-18T16:03:58;-2.70;99.90
3816;DHT22;1923;48.154;11.536;2022-12-18T16:06:26;-3.00;99.90
3816;DHT22;1923;48.154;11.536;2022-12-18T16:09:14;-3.00;99.90
3816;DHT22;1923;48.154;11.536;2022-12-18T16:11:50;-2.90;99.90
3816;DHT22;1923;48.154;11.536;2022-12-18T16:14:19;-2.90;99.90
3816;DHT22;1923;48.154;11.536;2022-12-18T16:16:49;-3.10;99.90
3816;DHT22;1923;48.154;11.536;2022-12-18T16:19:19;-3.20;99.90
3816;DHT22;1923;48.154;11.536;2022-12-18T16:21:49;-3.20;99.90
3816;DHT22;1923;48.154;11.536;2022-12-18T16:24:20;-3.20;99.90
3816;DHT22;1923;48.154;11.536;2022-12-18T16:26:48;-3.20;99.90
3816;DHT22;1923;48.154;11.536;2022-12-18T16:29:18;-3.40;99.90
3816;DHT22;1923;48.154;11.536;2022-12-18T16:31:54;-3.40;99.90
3816;DHT22;1923;48.154;11.536;2022-12-18T16:34:26;-3.30;99.90
3816;DHT22;1923;48.154;11.536;2022-12-18T16:36:56;-3.30;99.90
3816;DHT22;1923;48.154;11.536;2022-12-18T16:39:31;-3.20;99.90
3816;DHT22;1923;48.154;11.536;2022-12-18T16:42:01;-3.10;99.90
3816;DHT22;1923;48.154;11.536;2022-12-18T16:44:31;-3.00;99.90
3816;DHT22;1923;48.154;11.536;2022-12-18T16:46:59;-2.90;99.90
3816;DHT22;1923;48.154;11.536;2022-12-18T16:49:30;-2.70;99.90
3816;DHT22;1923;48.154;11.536;2022-12-18T16:51:58;-2.80;99.90
3816;DHT22;1923;48.154;11.536;2022-12-18T16:54:26;-2.70;99.90
3816;DHT22;1923;48.154;11.536;2022-12-18T16:56:56;-2.50;99.90
3816;DHT22;1923;48.154;11.536;2022-12-18T16:59:24;-2.40;99.90
3816;DHT22;1923;48.154;11.536;2022-12-18T17:01:53;-2.50;99.90
3816;DHT22;1923;48.154;11.536;2022-12-18T17:04:23;-2.50;99.90
3816;DHT22;1923;48.154;11.536;2022-12-18T17:06:52;-2.60;99.90
3816;DHT22;1923;48.154;11.536;2022-12-18T17:09:21;-2.80;99.90
3816;DHT22;1923;48.154;11.536;2022-12-18T17:11:51;-2.90;99.90
3816;DHT22;1923;48.154;11.536;2022-12-18T17:14:21;-3.00;99.90
3816;DHT22;1923;48.154;11.536;2022-12-18T17:16:50;-3.00;99.90
3816;DHT22;1923;48.154;11.536;2022-12-18T17:19:38;-3.20;99.90
3816;DHT22;1923;48.154;11.536;2022-12-18T17:22:07;-3.20;99.90
3816;DHT22;1923;48.154;11.536;2022-12-18T17:24:35;-3.10;99.90
3816;DHT22;1923;48.154;11.536;2022-12-18T17:27:04;-2.90;99.90
3816;DHT22;1923;48.154;11.536;2022-12-18T17:29:33;-2.80;99.90
3816;DHT22;1923;48.154;11.536;2022-12-18T17:32:01;-2.90;99.90
3816;DHT22;1923;48.154;11.536;2022-12-18T17:34:29;-3.00;99.90
3816;DHT22;1923;48.154;11.536;2022-12-18T17:36:57;-2.90;99.90
3816;DHT22;1923;48.154;11.536;2022-12-18T17:39:26;-2.90;99.90
3816;DHT22;1923;48.154;11.536;2022-12-18T17:41:57;-2.80;99.90
3816;DHT22;1923;48.154;11.536;2022-12-18T17:44:25;-2.80;99.90
3816;DHT22;1923;48.154;11.536;2022-12-18T17:46:53;-2.60;99.90
3816;DHT22;1923;48.154;11.536;2022-12-18T17:49:21;-2.50;99.90
3816;DHT22;1923;48.154;11.536;2022-12-18T17:51:49;-2.70;99.90
3816;DHT22;1923;48.154;11.536;2022-12-18T17:54:17;-2.70;99.90
3816;DHT22;1923;48.154;11.536;2022-12-18T17:56:46;-2.60;99.90
3816;DHT22;1923;48.154;11.536;2022-12-18T17:59:15;-2.70;99.90
3816;DHT22;1923;48.154;11.536;2022-12-18T18:01:43;-2.70;99.90
3816;DHT22;1923;48.154;11.536;2022-12-18T18:04:12;-2.60;99.90
3816;DHT22;1923;48.154;11.536;2022-12-18T18:06:41;-2.60;99.90
3816;DHT22;1923;48.154;11.536;2022-12-18T18:09:09;-2.70;99.90
3816;DHT22;1923;48.154;11.536;2022-12-18T18:11:42;-2.60;99.90
3816;DHT22;1923;48.154;11.536;2022-12-18T18:14:31;-2.70;99.90
3816;DHT22;1923;48.154;11.536;2022-12-18T18:17:00;-2.70;99.90
3816;DHT22;1923;48.154;11.536;2022-12-18T18:19:31;-2.90;99.90
3816;DHT22;1923;48.154;11.536;2022-12-18T18:21:59;-2.90;99.90
3816;DHT22;1923;48.154;11.536;2022-12-18T18:24:29;-3.00;99.90
3816;DHT22;1923;48.154;11.536;2022-12-18T18:26:57;-2.90;99.90
3816;DHT22;1923;48.154;11.536;2022-12-18T18:29:27;-2.90;99.90
3816;DHT22;1923;48.154;11.536;2022-12-18T18:31:57;-2.90;99.90
3816;DHT22;1923;48.154;11.536;2022-12-18T18:34:27;-2.70;99.90
3816;DHT22;1923;48.154;11.536;2022-12-18T18:36:56;-2.80;99.90
3816;DHT22;1923;48.154;11.536;2022-12-18T18:39:24;-2.90;99.90
3816;DHT22;1923;48.154;11.536;2022-12-18T18:41:52;-3.00;99.90
3816;DHT22;1923;48.154;11.536;2022-12-18T18:44:21;-3.30;99.90
3816;DHT22;1923;48.154;11.536;2022-12-18T18:46:52;-3.40;99.90
3816;DHT22;1923;48.154;11.536;2022-12-18T18:49:22;-3.60;99.90
3816;DHT22;1923;48.154;11.536;2022-12-18T18:51:53;-3.50;99.90
3816;DHT22;1923;48.154;11.536;2022-12-18T18:54:21;-3.60;99.90
3816;DHT22;1923;48.154;11.536;2022-12-18T18:56:49;-3.40;99.90
3816;DHT22;1923;48.154;11.536;2022-12-18T18:59:37;-3.60;99.90
3816;DHT22;1923;48.154;11.536;2022-12-18T19:02:05;-3.50;99.90
3816;DHT22;1923;48.154;11.536;2022-12-18T19:04:35;-3.30;99.90
3816;DHT22;1923;48.154;11.536;2022-12-18T19:07:12;-3.30;99.90
3816;DHT22;1923;48.154;11.536;2022-12-18T19:09:49;-3.70;99.90
3816;DHT22;1923;48.154;11.536;2022-12-18T19:12:20;-3.50;99.90
3816;DHT22;1923;48.154;11.536;2022-12-18T19:15:06;-3.40;99.90
3816;DHT22;1923;48.154;11.536;2022-12-18T19:17:35;-3.40;99.90
3816;DHT22;1923;48.154;11.536;2022-12-18T19:20:05;-3.40;99.90
3816;DHT22;1923;48.154;11.536;2022-12-18T19:22:36;-3.60;99.90
3816;DHT22;1923;48.154;11.536;2022-12-18T19:25:05;-3.70;99.90
3816;DHT22;1923;48.154;11.536;2022-12-18T19:27:33;-3.60;99.90
3816;DHT22;1923;48.154;11.536;2022-12-18T19:30:06;-3.50;99.90
3816;DHT22;1923;48.154;11.536;2022-12-18T19:32:34;-3.50;99.90
3816;DHT22;1923;48.154;11.536;2022-12-18T19:35:04;-3.60;99.90
3816;DHT22;1923;48.154;11.536;2022-12-18T19:37:33;-3.40;99.90
3816;DHT22;1923;48.154;11.536;2022-12-18T19:40:01;-3.40;99.90
3816;DHT22;1923;48.154;11.536;2022-12-18T19:42:38;-3.50;99.90
3816;DHT22;1923;48.154;11.536;2022-12-18T19:45:06;-3.50;99.90
3816;DHT22;1923;48.154;11.536;2022-12-18T19:47:35;-3.40;99.90
3816;DHT22;1923;48.154;11.536;2022-12-18T19:50:06;-3.50;99.90
3816;DHT22;1923;48.154;11.536;2022-12-18T19:52:34;-3.50;99.90
3816;DHT22;1923;48.154;11.536;2022-12-18T19:55:03;-3.30;99.90
3816;DHT22;1923;48.154;11.536;2022-12-18T19:57:31;-3.40;99.90
3816;DHT22;1923;48.154;11.536;2022-12-18T20:00:00;-3.50;99.90
3816;DHT22;1923;48.154;11.536;2022-12-18T20:02:28;-3.50;99.90
3816;DHT22;1923;48.154;11.536;2022-12-18T20:04:57;-3.40;99.90
3816;DHT22;1923;48.154;11.536;2022-12-18T20:07:26;-3.20;99.90
3816;DHT22;1923;48.154;11.536;2022-12-18T20:09:55;-3.10;99.90
3816;DHT22;1923;48.154;11.536;2022-12-18T20:12:34;-2.90;99.90
3816;DHT22;1923;48.154;11.536;2022-12-18T20:15:02;-2.90;99.90
3816;DHT22;1923;48.154;11.536;2022-12-18T20:17:30;-2.80;99.90
3816;DHT22;1923;48.154;11.536;2022-12-18T20:19:59;-2.80;99.90
3816;DHT22;1923;48.154;11.536;2022-12-18T20:22:29;-2.70;99.90
3816;DHT22;1923;48.154;11.536;2022-12-18T20:24:57;-2.70;99.90
3816;DHT22;1923;48.154;11.536;2022-12-18T20:27:25;-2.70;99.90
3816;DHT22;1923;48.154;11.536;2022-12-18T20:29:53;-2.80;99.90
3816;DHT22;1923;48.154;11.536;2022-12-18T20:32:23;-2.80;99.90
3816;DHT22;1923;48.154;11.536;2022-12-18T20:34:53;-3.00;99.90
3816;DHT22;1923;48.154;11.536;2022-12-18T20:37:22;-3.00;99.90
3816;DHT22;1923;48.154;11.536;2022-12-18T20:39:51;-2.90;99.90
3816;DHT22;1923;48.154;11.536;2022-12-18T20:42:21;-2.80;99.90
3816;DHT22;1923;48.154;11.536;2022-12-18T20:44:49;-2.90;99.90
3816;DHT22;1923;48.154;11.536;2022-12-18T20:47:17;-2.90;99.90
3816;DHT22;1923;48.154;11.536;2022-12-18T20:49:45;-2.90;99.90
3816;DHT22;1923;48.154;11.536;2022-12-18T20:52:13;-3.10;99.90
3816;DHT22;1923;48.154;11.536;2022-12-18T20:54:41;-3.60;99.90
3816;DHT22;1923;48.154;11.536;2022-12-18T20:57:10;-3.60;99.90
3816;DHT22;1923;48.154;11.536;2022-12-18T20:59:38;-3.30;99.90
3816;DHT22;1923;48.154;11.536;2022-12-18T21:02:14;-3.40;99.90
3816;DHT22;1923;48.154;11.536;2022-12-18T21:04:42;-3.10;99.90
3816;DHT22;1923;48.154;11.536;2022-12-18T21:07:10;-3.10;99.90
3816;DHT22;1923;48.154;11.536;2022-12-18T21:09:38;-3.00;99.90
3816;DHT22;1923;48.154;11.536;2022-12-18T21:12:12;-3.00;99.90
3816;DHT22;1923;48.154;11.536;2022-12-18T21:15:16;-3.10;99.90
3816;DHT22;1923;48.154;11.536;2022-12-18T21:17:53;-3.30;99.90
3816;DHT22;1923;48.154;11.536;2022-12-18T21:20:22;-3.40;99.90
3816;DHT22;1923;48.154;11.536;2022-12-18T21:22:50;-3.20;99.90
3816;DHT22;1923;48.154;11.536;2022-12-18T21:25:22;-3.30;99.90
3816;DHT22;1923;48.154;11.536;2022-12-18T21:27:51;-3.40;99.90
3816;DHT22;1923;48.154;11.536;2022-12-18T21:30:19;-3.70;99.90
3816;DHT22;1923;48.154;11.536;2022-12-18T21:32:47;-3.50;99.90
3816;DHT22;1923;48.154;11.536;2022-12-18T21:35:16;-3.60;99.90
3816;DHT22;1923;48.154;11.536;2022-12-18T21:37:46;-3.50;99.90
3816;DHT22;1923;48.154;11.536;2022-12-18T21:40:14;-3.40;99.90
3816;DHT22;1923;48.154;11.536;2022-12-18T21:42:42;-3.40;99.90
3816;DHT22;1923;48.154;11.536;2022-12-18T21:45:29;-3.30;99.90
3816;DHT22;1923;48.154;11.536;2022-12-18T21:47:57;-3.30;99.90
3816;DHT22;1923;48.154;11.536;2022-12-18T21:50:25;-3.30;99.90
3816;DHT22;1923;48.154;11.536;2022-12-18T21:52:53;-3.30;99.90
3816;DHT22;1923;48.154;11.536;2022-12-18T21:55:21;-3.40;99.90
3816;DHT22;1923;48.154;11.536;2022-12-18T21:57:49;-3.50;99.90
3816;DHT22;1923;48.154;11.536;2022-12-18T22:00:17;-3.50;99.90
3816;DHT22;1923;48.154;11.536;2022-12-18T22:02:47;-3.70;99.90
3816;DHT22;1923;48.154;11.536;2022-12-18T22:05:35;-3.50;99.90
3816;DHT22;1923;48.154;11.536;2022-12-18T22:08:03;-3.70;99.90
3816;DHT22;1923;48.154;11.536;2022-12-18T22:10:32;-3.70;99.90
3816;DHT22;1923;48.154;11.536;2022-12-18T22:13:00;-3.70;99.90
3816;DHT22;1923;48.154;11.536;2022-12-18T22:15:28;-3.50;99.90
3816;DHT22;1923;48.154;11.536;2022-12-18T22:17:58;-3.30;99.90
3816;DHT22;1923;48.154;11.536;2022-12-18T22:20:26;-3.20;99.90
3816;DHT22;1923;48.154;11.536;2022-12-18T22:22:55;-3.00;99.90
3816;DHT22;1923;48.154;11.536;2022-12-18T22:25:24;-3.00;99.90
3816;DHT22;1923;48.154;11.536;2022-12-18T22:27:52;-3.20;99.90
3816;DHT22;1923;48.154;11.536;2022-12-18T22:30:37;-3.50;99.90
3816;DHT22;1923;48.154;11.536;2022-12-18T22:33:07;-3.40;99.90
3816;DHT22;1923;48.154;11.536;2022-12-18T22:35:35;-3.20;99.90
3816;DHT22;1923;48.154;11.536;2022-12-18T22:38:03;-3.40;99.90
3816;DHT22;1923;48.154;11.536;2022-12-18T22:40:31;-3.60;99.90
3816;DHT22;1923;48.154;11.536;2022-12-18T22:42:59;-3.40;99.90
3816;DHT22;1923;48.154;11.536;2022-12-18T22:45:27;-3.40;99.90
3816;DHT22;1923;48.154;11.536;2022-12-18T22:47:55;-3.60;99.90
3816;DHT22;1923;48.154;11.536;2022-12-18T22:50:25;-3.60;99.90
3816;DHT22;1923;48.154;11.536;2022-12-18T22:52:53;-3.40;99.90
3816;DHT22;1923;48.154;11.536;2022-12-18T22:55:21;-3.50;99.90
3816;DHT22;1923;48.154;11.536;2022-12-18T22:57:49;-3.20;99.90
3816;DHT22;1923;48.154;11.536;2022-12-18T23:00:17;-3.30;99.90
3816;DHT22;1923;48.154;11.536;2022-12-18T23:02:50;-3.30;99.90
3816;DHT22;1923;48.154;11.536;2022-12-18T23:05:27;-3.30;99.90
3816;DHT22;1923;48.154;11.536;2022-12-18T23:07:56;-3.50;99.90
3816;DHT22;1923;48.154;11.536;2022-12-18T23:10:25;-3.30;99.90
3816;DHT22;1923;48.154;11.536;2022-12-18T23:12:53;-3.50;99.90
3816;DHT22;1923;48.154;11.536;2022-12-18T23:15:21;-3.50;99.90
3816;DHT22;1923;48.154;11.536;2022-12-18T23:17:55;-3.40;99.90
3816;DHT22;1923;48.154;11.536;2022-12-18T23:20:23;-3.30;99.90
3816;DHT22;1923;48.154;11.536;2022-12-18T23:22:53;-3.30;99.90
3816;DHT22;1923;48.154;11.536;2022-12-18T23:25:21;-3.20;99.90
3816;DHT22;1923;48.154;11.536;2022-12-18T23:27:49;-3.20;99.90
3816;DHT22;1923;48.154;11.536;2022-12-18T23:30:17;-3.10;99.90
3816;DHT22;1923;48.154;11.536;2022-12-18T23:32:45;-3.10;99.90
3816;DHT22;1923;48.154;11.536;2022-12-18T23:35:14;-3.00;99.90
3816;DHT22;1923;48.154;11.536;2022-12-18T23:37:42;-3.10;99.90
3816;DHT22;1923;48.154;11.536;2022-12-18T23:40:28;-2.90;99.90
3816;DHT22;1923;48.154;11.536;2022-12-18T23:42:58;-3.00;99.90
3816;DHT22;1923;48.154;11.536;2022-12-18T23:45:26;-2.90;99.90
3816;DHT22;1923;48.154;11.536;2022-12-18T23:47:54;-3.00;99.90
3816;DHT22;1923;48.154;11.536;2022-12-18T23:50:22;-2.90;99.90
3816;DHT22;1923;48.154;11.536;2022-12-18T23:52:56;-2.80;99.90
3816;DHT22;1923;48.154;11.536;2022-12-18T23:55:36;-2.90;99.90
3816;DHT22;1923;48.154;11.536;2022-12-18T23:58:05;-3.20;99.90
